Time;durP1;ratioP1;P1;durP2;ratioP2;P2;SDS_P1;SDS_P2;PMS_P1;PMS_P2;Temp;Humidity;BMP_temperature;BMP_pressure;BME280_temperature;BME280_humidity;BME280_pressure;Samples;Min_cycle;Max_cycle;Signal;HPM_P1;HPM_P2
2022/05/16 00:01:40;;;;;;;17.83;7.15;;;;;;;;;;6117279;23;20102;-87
2022/05/16 00:04:06;;;;;;;14.88;7.13;;;;;;;;;;6094722;23;20017;-89
2022/05/16 00:06:32;;;;;;;18.77;6.88;;;;;;;;;;6094022;23;20017;-88
2022/05/16 00:08:58;;;;;;;17.10;7.18;;;;;;;;;;6097746;23;20203;-90
2022/05/16 00:11:25;;;;;;;15.77;7.05;;;;;;;;;;6141576;23;20105;-87
2022/05/16 00:13:51;;;;;;;19.98;7.38;;;;;;;;;;6118353;23;20052;-87
2022/05/16 00:16:17;;;;;;;13.38;7.00;;;;;;;;;;6119879;23;20037;-87
2022/05/16 00:18:43;;;;;;;20.98;6.95;;;;;;;;;;6098263;23;20016;-88
2022/05/16 00:21:09;;;;;;;11.57;6.25;;;;;;;;;;6123372;23;20017;-86
2022/05/16 00:23:36;;;;;;;17.30;6.50;;;;;;;;;;6097745;23;20017;-86
2022/05/16 00:26:02;;;;;;;11.90;6.45;;;;;;;;;;6100468;23;20159;-90
2022/05/16 00:28:28;;;;;;;18.08;6.78;;;;;;;;;;6123150;23;20024;-87
2022/05/16 00:30:54;;;;;;;15.88;7.03;;;;;;;;;;6099737;23;20092;-89
2022/05/16 00:33:21;;;;;;;14.85;6.63;;;;;;;;;;6097208;23;20016;-88
2022/05/16 00:35:49;;;;;;;12.02;6.53;;;;;;;;;;6099076;23;20017;-86
2022/05/16 00:38:15;;;;;;;13.52;6.15;;;;;;;;;;6124835;23;20488;-85
2022/05/16 00:40:42;;;;;;;9.65;5.75;;;;;;;;;;6124084;23;20017;-86
2022/05/16 00:43:09;;;;;;;15.75;7.07;;;;;;;;;;6101185;23;20020;-87
2022/05/16 00:45:36;;;;;;;14.05;6.28;;;;;;;;;;6124610;23;20661;-86
2022/05/16 00:48:03;;;;;;;11.35;6.30;;;;;;;;;;6120084;23;20067;-87
2022/05/16 00:50:29;;;;;;;16.17;5.90;;;;;;;;;;6148511;23;20021;-88
2022/05/16 00:52:56;;;;;;;13.32;6.10;;;;;;;;;;6122650;23;20048;-89
2022/05/16 00:55:28;;;;;;;16.10;6.38;;;;;;;;;;6119528;23;20028;-85
2022/05/16 00:57:55;;;;;;;18.70;6.55;;;;;;;;;;6122005;23;20017;-84
2022/05/16 01:00:24;;;;;;;15.90;8.18;;;;;;;;;;6122548;23;20017;-85
2022/05/16 01:05:38;;;;;;;13.70;6.20;;;;;;;;;;6143987;23;20251;-87
2022/05/16 01:08:15;;;;;;;14.80;6.22;;;;;;;;;;6122548;23;20044;-84
2022/05/16 01:10:41;;;;;;;17.67;6.32;;;;;;;;;;6147026;23;20059;-86
2022/05/16 01:13:08;;;;;;;11.57;5.85;;;;;;;;;;6093834;23;20077;-88
2022/05/16 01:15:43;;;;;;;13.23;6.57;;;;;;;;;;6119370;23;20398;-88
2022/05/16 01:18:10;;;;;;;22.08;6.80;;;;;;;;;;6119392;23;20021;-88
2022/05/16 01:20:36;;;;;;;11.45;6.15;;;;;;;;;;6122964;23;20100;-86
2022/05/16 01:23:03;;;;;;;12.90;5.80;;;;;;;;;;6123465;23;20394;-85
2022/05/16 01:25:29;;;;;;;14.40;6.35;;;;;;;;;;6097075;23;20044;-86
2022/05/16 01:28:01;;;;;;;14.02;5.75;;;;;;;;;;6100167;23;20013;-87
2022/05/16 01:30:32;;;;;;;13.63;5.28;;;;;;;;;;6125090;23;20478;-89
2022/05/16 01:32:58;;;;;;;12.38;5.78;;;;;;;;;;6147684;23;20231;-87
2022/05/16 01:35:26;;;;;;;15.35;5.95;;;;;;;;;;6095835;23;20021;-88
2022/05/16 01:40:38;;;;;;;10.23;5.35;;;;;;;;;;6149727;23;20025;-88
2022/05/16 01:43:07;;;;;;;12.65;5.72;;;;;;;;;;6100421;23;20017;-88
2022/05/16 01:45:33;;;;;;;12.05;5.22;;;;;;;;;;6124790;23;20013;-85
2022/05/16 01:48:00;;;;;;;15.82;5.55;;;;;;;;;;6147635;23;20032;-88
2022/05/16 01:50:26;;;;;;;12.70;5.72;;;;;;;;;;6124475;23;20027;-87
2022/05/16 01:52:52;;;;;;;12.38;4.82;;;;;;;;;;6124610;23;20017;-86
2022/05/16 01:55:18;;;;;;;12.50;5.03;;;;;;;;;;6124204;23;20017;-90
2022/05/16 01:57:44;;;;;;;12.23;5.22;;;;;;;;;;6122249;23;20331;-91
2022/05/16 02:00:12;;;;;;;10.98;5.05;;;;;;;;;;6124058;23;20048;-87
2022/05/16 02:02:44;;;;;;;9.18;4.68;;;;;;;;;;6129687;23;20013;-87
2022/05/16 02:05:12;;;;;;;9.60;4.30;;;;;;;;;;6104114;23;20517;-86
2022/05/16 02:07:40;;;;;;;9.88;4.85;;;;;;;;;;6126163;23;20022;-89
2022/05/16 02:10:07;;;;;;;13.48;5.40;;;;;;;;;;6102072;23;20025;-91
2022/05/16 02:12:34;;;;;;;10.77;4.88;;;;;;;;;;6100359;23;20635;-89
2022/05/16 02:15:00;;;;;;;14.93;4.97;;;;;;;;;;6133219;23;20076;-88
2022/05/16 02:17:26;;;;;;;10.18;4.70;;;;;;;;;;6130726;23;20108;-86
2022/05/16 02:19:53;;;;;;;12.25;4.90;;;;;;;;;;6130532;23;20013;-88
2022/05/16 02:25:05;;;;;;;10.15;4.80;;;;;;;;;;6141514;23;20052;-84
2022/05/16 02:27:31;;;;;;;13.23;4.78;;;;;;;;;;6148324;23;20019;-84
2022/05/16 02:30:04;;;;;;;11.85;4.90;;;;;;;;;;6140388;23;20052;-86
2022/05/16 02:32:30;;;;;;;13.23;5.30;;;;;;;;;;6124148;23;20013;-86
2022/05/16 02:34:57;;;;;;;11.05;4.90;;;;;;;;;;6122855;23;20151;-87
2022/05/16 02:37:23;;;;;;;12.15;4.80;;;;;;;;;;6120117;23;20013;-86
2022/05/16 02:39:49;;;;;;;9.43;4.47;;;;;;;;;;6120917;23;20397;-86
2022/05/16 02:42:18;;;;;;;10.75;4.45;;;;;;;;;;6121820;23;20104;-86
2022/05/16 02:44:45;;;;;;;8.00;4.13;;;;;;;;;;6099470;23;20067;-85
2022/05/16 02:47:13;;;;;;;8.00;4.07;;;;;;;;;;6124352;23;20021;-85
2022/05/16 02:49:39;;;;;;;9.60;4.53;;;;;;;;;;6125353;23;20024;-86
2022/05/16 02:52:05;;;;;;;14.50;4.82;;;;;;;;;;6100727;23;20028;-86
2022/05/16 02:54:31;;;;;;;10.40;5.00;;;;;;;;;;6125323;23;20029;-85
2022/05/16 02:56:58;;;;;;;15.05;5.00;;;;;;;;;;6106698;23;20761;-86
2022/05/16 02:59:32;;;;;;;11.00;4.28;;;;;;;;;;6127915;23;20009;-87
2022/05/16 03:01:59;;;;;;;12.88;4.30;;;;;;;;;;6105683;23;20040;-87
2022/05/16 03:04:28;;;;;;;9.05;4.25;;;;;;;;;;6106598;23;20107;-86
2022/05/16 03:06:54;;;;;;;11.95;4.43;;;;;;;;;;6128308;23;20013;-86
2022/05/16 03:09:21;;;;;;;11.35;3.55;;;;;;;;;;6103070;23;20036;-85
2022/05/16 03:11:47;;;;;;;8.77;3.88;;;;;;;;;;6131887;23;20024;-88
2022/05/16 03:14:14;;;;;;;7.18;3.97;;;;;;;;;;6124800;23;20386;-84
2022/05/16 03:16:40;;;;;;;15.95;4.65;;;;;;;;;;6105784;23;20017;-87
2022/05/16 03:19:06;;;;;;;11.95;4.30;;;;;;;;;;6127593;23;20378;-87
2022/05/16 03:21:33;;;;;;;12.70;4.03;;;;;;;;;;6129036;23;20508;-85
2022/05/16 03:23:59;;;;;;;10.77;4.15;;;;;;;;;;6125267;23;20458;-86
2022/05/16 03:26:25;;;;;;;10.07;3.70;;;;;;;;;;6153281;23;20013;-86
2022/05/16 03:28:52;;;;;;;10.38;4.15;;;;;;;;;;6104368;23;20087;-88
2022/05/16 03:31:20;;;;;;;7.97;3.85;;;;;;;;;;6124636;23;20516;-86
2022/05/16 03:33:51;;;;;;;9.93;3.92;;;;;;;;;;6128037;23;20044;-87
2022/05/16 03:36:23;;;;;;;9.48;4.00;;;;;;;;;;6128421;23;20020;-85
2022/05/16 03:41:41;;;;;;;10.00;3.85;;;;;;;;;;6149314;23;20347;-86
2022/05/16 03:44:43;;;;;;;11.13;4.15;;;;;;;;;;6127789;23;20020;-87
2022/05/16 03:47:12;;;;;;;6.53;3.50;;;;;;;;;;6122435;23;20043;-84
2022/05/16 03:49:47;;;;;;;7.60;3.80;;;;;;;;;;6124328;23;20020;-88
2022/05/16 03:52:13;;;;;;;7.40;3.30;;;;;;;;;;6100979;23;20021;-82
2022/05/16 03:54:43;;;;;;;10.80;3.70;;;;;;;;;;6124739;23;20068;-85
2022/05/16 03:57:10;;;;;;;8.80;3.60;;;;;;;;;;6123597;23;20024;-86
2022/05/16 03:59:36;;;;;;;7.45;3.53;;;;;;;;;;6125923;23;20019;-86
2022/05/16 04:02:05;;;;;;;7.18;3.35;;;;;;;;;;6120904;23;20017;-85
2022/05/16 04:04:37;;;;;;;11.88;3.90;;;;;;;;;;6122832;23;20044;-85
2022/05/16 04:07:09;;;;;;;12.00;3.95;;;;;;;;;;6101236;23;20055;-86
2022/05/16 04:09:35;;;;;;;;;;;;;;;;;;6124565;23;20072;-87
2022/05/16 04:12:02;;;;;;;7.55;3.17;;;;;;;;;;6146497;23;19923;-86
2022/05/16 04:14:28;;;;;;;10.77;3.45;;;;;;;;;;6123530;23;20056;-85
2022/05/16 04:16:54;;;;;;;8.60;3.58;;;;;;;;;;6120706;23;20053;-86
2022/05/16 04:19:23;;;;;;;7.70;3.63;;;;;;;;;;6120318;23;20009;-86
2022/05/16 04:21:49;;;;;;;8.80;3.60;;;;;;;;;;6120520;23;20043;-87
2022/05/16 04:24:15;;;;;;;7.38;3.10;;;;;;;;;;6121776;23;20100;-85
2022/05/16 04:26:44;;;;;;;9.40;3.45;;;;;;;;;;6097457;23;20071;-85
2022/05/16 04:29:10;;;;;;;7.88;3.50;;;;;;;;;;6122175;23;20009;-88
2022/05/16 04:31:37;;;;;;;10.77;3.50;;;;;;;;;;6097387;23;20022;-87
2022/05/16 04:34:09;;;;;;;6.07;2.88;;;;;;;;;;6118879;23;20876;-84
2022/05/16 04:36:35;;;;;;;11.98;3.38;;;;;;;;;;6143929;23;20013;-87
2022/05/16 04:39:01;;;;;;;8.65;3.70;;;;;;;;;;6144409;23;20078;-87
2022/05/16 04:44:12;;;;;;;6.68;3.63;;;;;;;;;;6114678;23;20025;-86
2022/05/16 04:46:39;;;;;;;6.82;3.42;;;;;;;;;;6095881;23;20009;-85
2022/05/16 04:49:05;;;;;;;12.23;3.75;;;;;;;;;;6119952;23;20456;-86
2022/05/16 04:51:33;;;;;;;7.70;3.42;;;;;;;;;;6092029;23;20063;-86
2022/05/16 04:54:04;;;;;;;15.05;3.83;;;;;;;;;;6137532;23;20017;-86
2022/05/16 04:56:31;;;;;;;8.32;4.00;;;;;;;;;;6116138;23;20017;-86
2022/05/16 04:58:57;;;;;;;10.68;4.13;;;;;;;;;;6093939;23;20009;-87
2022/05/16 05:01:24;;;;;;;10.55;3.97;;;;;;;;;;6117442;23;20028;-87
2022/05/16 05:03:50;;;;;;;7.22;3.70;;;;;;;;;;6116947;23;20016;-85
2022/05/16 05:06:17;;;;;;;10.07;4.20;;;;;;;;;;6091778;23;20017;-86
2022/05/16 05:08:44;;;;;;;8.48;3.70;;;;;;;;;;6120791;23;20327;-86
2022/05/16 05:16:39;;;;;;;10.27;4.00;;;;;;;;;;6138334;23;20051;-87
2022/05/16 05:19:06;;;;;;;14.27;4.40;;;;;;;;;;6092914;23;20053;-87
2022/05/16 05:21:32;;;;;;;8.13;4.03;;;;;;;;;;6119561;23;20053;-84
2022/05/16 05:23:58;;;;;;;12.30;4.00;;;;;;;;;;6116057;23;21136;-87
2022/05/16 05:26:25;;;;;;;8.95;3.60;;;;;;;;;;6114638;23;20187;-85
2022/05/16 05:28:51;;;;;;;11.80;3.80;;;;;;;;;;6117877;23;20124;-85
2022/05/16 05:31:20;;;;;;;8.95;3.80;;;;;;;;;;6096554;23;20028;-87
2022/05/16 05:33:46;;;;;;;7.80;4.15;;;;;;;;;;6094358;23;20271;-85
2022/05/16 05:36:15;;;;;;;12.05;3.75;;;;;;;;;;6119953;23;20338;-86
2022/05/16 05:38:42;;;;;;;10.63;4.60;;;;;;;;;;6120877;23;20024;-85
2022/05/16 05:41:09;;;;;;;9.52;3.92;;;;;;;;;;6120665;23;20013;-87
2022/05/16 05:43:35;;;;;;;10.65;4.10;;;;;;;;;;6121796;23;20071;-86
2022/05/16 05:46:05;;;;;;;7.65;3.83;;;;;;;;;;6120138;23;20509;-85
2022/05/16 05:48:31;;;;;;;9.02;3.85;;;;;;;;;;6123317;23;20017;-85
2022/05/16 05:50:57;;;;;;;10.02;3.58;;;;;;;;;;6096709;23;20053;-87
2022/05/16 05:53:23;;;;;;;11.73;4.15;;;;;;;;;;6122132;23;20023;-87
2022/05/16 05:55:50;;;;;;;12.40;4.13;;;;;;;;;;6095448;23;20035;-86
2022/05/16 05:58:19;;;;;;;6.15;4.10;;;;;;;;;;6146721;23;20096;-87
2022/05/16 06:00:45;;;;;;;8.65;4.22;;;;;;;;;;6099098;23;20430;-88
2022/05/16 06:03:11;;;;;;;12.15;4.03;;;;;;;;;;6100686;23;20021;-87
2022/05/16 06:05:37;;;;;;;11.32;3.95;;;;;;;;;;6100049;23;20052;-87
2022/05/16 06:08:04;;;;;;;10.63;4.30;;;;;;;;;;6102785;23;20019;-87
2022/05/16 06:10:30;;;;;;;13.90;4.32;;;;;;;;;;6124512;23;20071;-88
2022/05/16 06:12:56;;;;;;;14.32;4.32;;;;;;;;;;6100633;23;20024;-85
2022/05/16 06:15:22;;;;;;;12.52;4.32;;;;;;;;;;6100788;23;20055;-86
2022/05/16 06:17:49;;;;;;;9.43;4.15;;;;;;;;;;6099762;23;20104;-87
2022/05/16 06:20:15;;;;;;;13.57;4.65;;;;;;;;;;6127451;23;20013;-87
2022/05/16 06:22:42;;;;;;;13.30;4.35;;;;;;;;;;6124196;23;20017;-88
2022/05/16 06:27:55;;;;;;;12.35;4.53;;;;;;;;;;6152579;23;20433;-87
2022/05/16 06:30:21;;;;;;;14.48;4.38;;;;;;;;;;6124890;23;20067;-87
2022/05/16 06:32:49;;;;;;;9.98;4.15;;;19.70;90.30;;;;;;6123859;23;20020;-86
2022/05/16 06:35:15;;;;;;;10.68;3.70;;;14.30;99.90;;;;;;6126118;23;20017;-87
2022/05/16 06:37:41;;;;;;;9.27;3.83;;;14.30;99.90;;;;;;6100776;23;20454;-86
2022/05/16 06:40:08;;;;;;;11.75;4.30;;;14.30;99.90;;;;;;6074778;23;20028;-87
2022/05/16 06:42:34;;;;;;;9.35;4.50;;;14.40;99.90;;;;;;6076047;23;20091;-87
2022/05/16 06:45:00;;;;;;;8.55;4.00;;;14.60;99.90;;;;;;6124338;23;20096;-86
2022/05/16 06:47:26;;;;;;;10.35;3.63;;;;;;;;;;6078816;23;20047;-87
2022/05/16 06:49:52;;;;;;;16.80;3.92;;;;;;;;;;6124628;23;20076;-85
2022/05/16 06:52:19;;;;;;;13.55;3.95;;;;;;;;;;6102095;23;20016;-87
2022/05/16 06:54:45;;;;;;;5.63;3.08;;;;;;;;;;6101974;23;20702;-85
2022/05/16 06:57:12;;;;;;;9.65;3.63;;;;;;;;;;6115221;23;20020;-87
2022/05/16 06:59:38;;;;;;;10.60;3.97;;;14.80;99.90;;;;;;6141895;23;20631;-87
2022/05/16 07:02:05;;;;;;;11.73;3.90;;;;;;;;;;6102235;23;20044;-88
2022/05/16 07:04:31;;;;;;;10.88;3.70;;;;;;;;;;6099041;23;20048;-89
2022/05/16 07:06:58;;;;;;;13.27;4.70;;;;;;;;;;6103601;23;20013;-88
2022/05/16 07:09:24;;;;;;;17.35;4.20;;;;;;;;;;6103017;23;20017;-87
2022/05/16 07:11:50;;;;;;;10.70;4.10;;;;;;;;;;6130373;23;20113;-89
2022/05/16 07:14:17;;;;;;;7.22;3.60;;;;;;;;;;6102888;23;20025;-87
2022/05/16 07:16:43;;;;;;;10.98;4.03;;;;;;;;;;6128878;23;20091;-89
2022/05/16 07:19:09;;;;;;;7.97;3.42;;;;;;;;;;6128707;23;20013;-88
2022/05/16 07:21:36;;;;;;;11.68;3.63;;;;;;;;;;6105279;23;20534;-87
2022/05/16 07:24:02;;;;;;;8.85;3.35;;;;;;;;;;6102561;23;20019;-90
2022/05/16 07:29:13;;;;;;;9.18;3.13;;;;;;;;;;6134122;23;20075;-88
2022/05/16 07:31:39;;;;;;;8.18;3.38;;;;;;;;;;6105520;23;20020;-86
2022/05/16 07:34:05;;;;;;;10.38;3.40;;;;;;;;;;6103139;23;20013;-87
2022/05/16 07:36:31;;;;;;;9.65;3.38;;;;;;;;;;6100566;23;20112;-86
2022/05/16 07:38:58;;;;;;;12.15;3.50;;;;;;;;;;6125597;23;20024;-89
2022/05/16 07:41:24;;;;;;;9.65;3.40;;;;;;;;;;6128820;23;20450;-87
2022/05/16 07:43:50;;;;;;;16.13;3.47;;;;;;;;;;6127352;23;20346;-87
2022/05/16 07:46:17;;;;;;;12.13;3.58;;;;;;;;;;6101285;23;20017;-88
2022/05/16 07:48:43;;;;;;;7.43;2.90;;;;;;;;;;6131022;23;20080;-90
2022/05/16 07:51:10;;;;;;;9.55;3.30;;;;;;;;;;6104948;23;20017;-88
2022/05/16 07:53:36;;;;;;;10.88;3.85;;;;;;;;;;6105028;23;20017;-90
2022/05/16 07:56:03;;;;;;;8.45;2.90;;;;;;;;;;6103140;23;20020;-90
2022/05/16 07:58:30;;;;;;;7.05;3.08;;;;;;;;;;6105649;23;20493;-86
2022/05/16 08:01:05;;;;;;;14.55;3.00;;;;;;;;;;6105182;23;20017;-91
2022/05/16 08:03:38;;;;;;;12.55;3.58;;;;;;;;;;6127671;23;20108;-89
2022/05/16 08:06:07;;;;;;;12.77;3.55;;;;;;;;;;6127640;23;20044;-88
2022/05/16 08:11:21;;;;;;;12.20;3.42;;;;;;;;;;6152620;23;20016;-90
2022/05/16 08:13:48;;;;;;;13.00;3.35;;;;;;;;;;6104756;23;20025;-89
2022/05/16 08:16:20;;;;;;;12.27;3.20;;;;;;;;;;6130115;23;20028;-91
2022/05/16 08:18:47;;;;;;;12.27;3.13;;;;;;;;;;6129410;23;20420;-89
2022/05/16 08:21:13;;;;;;;11.30;3.10;;;;;;;;;;6128388;23;20159;-89
2022/05/16 08:23:40;;;;;;;9.23;2.83;;;;;;;;;;6108054;23;20449;-89
2022/05/16 08:26:12;;;;;;;9.95;3.13;;;;;;;;;;6130440;23;20512;-90
2022/05/16 08:28:39;;;;;;;;;;;;;;;;;;6104600;23;20458;-90
2022/05/16 08:31:06;;;;;;;11.57;3.20;;;;;;;;;;6128720;23;19912;-90
2022/05/16 08:33:35;;;;;;;6.43;2.65;;;;;;;;;;6126943;23;20071;-90
2022/05/16 08:45:25;;;;;;;8.85;2.80;;;;;;;;;;6153190;23;20024;-92
2022/05/16 08:49:11;;;;;;;9.15;2.90;;;;;;;;;;5978005;23;20099;-90
2022/05/16 08:51:42;;;;;;;9.87;2.83;;;;;;;;;;5976632;23;20046;-90
2022/05/16 08:54:18;;;;;;;6.57;2.80;;;;;;;;;;6139128;23;20017;-89
2022/05/16 08:56:54;;;;;;;10.63;3.17;;;;;;;;;;6131829;23;20028;-91
2022/05/16 08:59:22;;;;;;;10.65;3.10;;;;;;;;;;6132673;23;20013;-92
2022/05/16 09:59:37;;;;;;;7.13;3.25;;;;;;;;;;6060459;23;20025;-87
2022/05/16 10:02:21;;;;;;;8.45;3.10;;;;;;;;;;6129344;23;20024;-88
2022/05/16 10:04:52;;;;;;;8.98;2.88;;;;;;;;;;6129452;23;20378;-88
2022/05/16 10:07:24;;;;;;;14.13;2.70;;;;;;;;;;6131063;23;20092;-88
2022/05/16 10:09:58;;;;;;;9.65;3.20;;;;;;;;;;6132877;23;20036;-93
2022/05/16 10:12:26;;;;;;;9.70;2.80;;;;;;;;;;6133130;23;20020;-91
2022/05/16 10:14:56;;;;;;;10.85;3.20;;;;;;;;;;6133519;23;20017;-91
2022/05/16 10:17:36;;;;;;;10.05;2.88;;;;;;;;;;6131135;23;20083;-90
2022/05/16 10:20:05;;;;;;;12.68;3.90;;;;;;;;;;6130295;23;20358;-89
2022/05/16 10:22:35;;;;;;;10.20;3.20;;;;;;;;;;6130552;23;20009;-91
2022/05/16 10:25:03;;;;;;;;;;;;;;;;;;6155640;23;20048;-89
2022/05/16 10:27:38;;;;;;;12.48;3.30;;;;;;;;;;6130478;23;19987;-87
2022/05/16 10:30:08;;;;;;;11.50;3.38;;;;;;;;;;6131018;23;20012;-88
2022/05/16 10:35:37;;;;;;;8.90;2.95;;;;;;;;;;6152642;23;20025;-86
2022/05/16 10:38:10;;;;;;;9.70;3.40;;;;;;;;;;6129448;23;20020;-87
2022/05/16 10:40:41;;;;;;;6.47;3.08;;;;;;;;;;6126213;23;20020;-88
2022/05/16 10:43:29;;;;;;;12.15;3.00;;;21.90;93.40;;;;;;6130003;23;20009;-90
2022/05/16 10:46:08;;;;;;;10.10;3.10;;;23.80;75.40;;;;;;6128319;23;20009;-91
2022/05/16 10:49:09;;;;;;;10.95;3.08;;;23.90;70.60;;;;;;6129534;23;20052;-87
2022/05/16 10:51:49;;;;;;;10.10;2.80;;;24.00;71.20;;;;;;6128152;23;20413;-88
2022/05/16 10:54:24;;;;;;;10.90;3.47;;;24.10;68.50;;;;;;6129220;23;20013;-89
2022/05/16 10:56:59;;;;;;;10.05;3.38;;;24.30;66.80;;;;;;6130676;23;20013;-87
2022/05/16 10:59:43;;;;;;;7.05;2.90;;;24.40;65.50;;;;;;6145402;23;20035;-89
2022/05/16 11:02:34;;;;;;;10.38;3.40;;;24.40;64.60;;;;;;6155178;23;20016;-89
2022/05/16 11:05:38;;;;;;;12.88;3.20;;;24.40;63.20;;;;;;6156704;23;20031;-90
2022/05/16 11:08:29;;;;;;;9.10;2.60;;;24.50;64.60;;;;;;6157804;23;20619;-89
2022/05/16 11:11:13;;;;;;;9.25;3.00;;;24.50;67.00;;;;;;6156072;23;20024;-89
2022/05/16 11:13:50;;;;;;;9.93;2.97;;;24.50;67.40;;;;;;6155469;23;20013;-88
2022/05/16 11:16:31;;;;;;;9.52;3.03;;;24.40;65.90;;;;;;6154776;23;20814;-88
2022/05/16 11:20:05;;;;;;;7.82;2.92;;;24.40;67.70;;;;;;6178563;23;20040;-89
2022/05/16 11:22:38;;;;;;;13.40;3.40;;;24.40;67.60;;;;;;6042753;23;20026;-89
2022/05/16 11:25:38;;;;;;;9.13;2.97;;;24.30;67.70;;;;;;6066937;23;20079;-90
2022/05/16 11:28:14;;;;;;;13.13;3.00;;;24.30;70.00;;;;;;6160685;23;20021;-89
2022/05/16 11:30:56;;;;;;;13.60;3.20;;;24.30;65.30;;;;;;6155457;23;20016;-89
2022/05/16 11:33:49;;;;;;;7.97;3.20;;;24.20;63.60;;;;;;6132470;23;20016;-90
2022/05/16 11:36:52;;;;;;;8.65;3.35;;;24.20;62.40;;;;;;6157513;23;20037;-90
2022/05/16 11:40:03;;;;;;;8.93;3.50;;;24.10;61.20;;;;;;6153737;23;20334;-89
2022/05/16 11:43:02;;;;;;;11.47;3.10;;;24.10;60.70;;;;;;6156943;23;20009;-90
2022/05/16 11:46:01;;;;;;;10.73;3.50;;;;;;;;;;6145895;23;20240;-91
2022/05/16 11:48:37;;;;;;;10.73;3.45;;;;;;;;;;6135801;23;20486;-89
2022/05/16 11:51:40;;;;;;;11.75;3.90;;;;;;;;;;6155529;23;20519;-92
2022/05/16 11:54:10;;;;;;;13.75;4.53;;;;;;;;;;6129880;23;20059;-89
2022/05/16 12:02:34;;;;;;;15.88;4.22;;;24.10;63.70;;;;;;6175340;23;20025;-87
2022/05/16 12:05:02;;;;;;;16.25;3.78;;;23.40;94.00;;;;;;6126161;23;20076;-87
2022/05/16 12:07:41;;;;;;;14.90;4.80;;;23.30;93.50;;;;;;6125031;23;20017;-88
2022/05/16 12:10:15;;;;;;;19.67;4.40;;;23.30;94.30;;;;;;6125374;23;20071;-88
2022/05/16 12:12:45;;;;;;;8.85;4.60;;;23.30;95.50;;;;;;6124440;23;20017;-87
2022/05/16 12:15:26;;;;;;;13.45;4.47;;;23.20;95.30;;;;;;6125416;23;20091;-88
2022/05/16 12:17:55;;;;;;;10.47;3.67;;;23.20;96.40;;;;;;6125614;23;20100;-86
2022/05/16 12:20:50;;;;;;;13.15;4.20;;;23.20;98.20;;;;;;6126539;23;20099;-86
2022/05/16 12:23:52;;;;;;;13.77;4.72;;;23.20;97.40;;;;;;6125134;23;20013;-87
2022/05/16 12:27:03;;;;;;;;;;;;;;;;;;;;;
2022/05/16 12:29:44;;;;;;;15.88;4.38;;;23.20;97.30;;;;;;6115418;23;20013;-88
2022/05/16 12:32:40;;;;;;;12.68;4.00;;;23.20;97.90;;;;;;6126473;23;20091;-87
2022/05/16 12:35:13;;;;;;;10.02;3.85;;;23.30;95.90;;;;;;6053535;23;20100;-87
2022/05/16 12:37:48;;;;;;;14.73;4.22;;;23.30;92.30;;;;;;6128634;23;20799;-86
2022/05/16 12:40:14;;;;;;;;;;;23.30;91.40;;;;;;6125597;23;20017;-87
2022/05/16 12:43:17;;;;;;;12.30;3.70;;;23.20;92.20;;;;;;6127978;23;19931;-87
2022/05/16 12:46:17;;;;;;;10.50;4.18;;;23.20;90.40;;;;;;6125068;23;20029;-87
2022/05/16 12:48:58;;;;;;;21.77;4.57;;;23.20;90.40;;;;;;6125967;23;20017;-87
2022/05/16 12:51:41;;;;;;;13.10;4.13;;;23.30;87.00;;;;;;6126435;23;20485;-86
2022/05/16 12:54:07;;;;;;;17.65;4.40;;;23.40;84.70;;;;;;6128172;23;20017;-88
2022/05/16 12:56:48;;;;;;;12.95;3.85;;;23.40;84.90;;;;;;6127274;23;20100;-87
2022/05/16 12:59:32;;;;;;;13.80;4.03;;;23.50;85.10;;;;;;6128449;23;20659;-88
2022/05/16 13:02:39;;;;;;;11.82;4.38;;;23.70;86.60;;;;;;6126417;23;20021;-86
2022/05/16 13:05:26;;;;;;;9.60;3.80;;;23.90;84.60;;;;;;6128302;23;20032;-87
2022/05/16 13:07:59;;;;;;;8.85;3.65;;;;;;;;;;6124722;23;20100;-86
2022/05/16 13:10:48;;;;;;;9.45;3.20;;;;;;;;;;6126058;23;20083;-86
2022/05/16 13:13:33;;;;;;;12.18;4.03;;;;;;;;;;6123289;23;20021;-87
2022/05/16 13:15:59;;;;;;;6.82;3.38;;;;;;;;;;6127513;23;20057;-86
2022/05/16 13:18:27;;;;;;;14.65;3.20;;;;;;;;;;6128514;23;20698;-87
2022/05/16 13:21:11;;;;;;;7.85;3.30;;;;;;;;;;6128535;23;20017;-87
2022/05/16 13:23:57;;;;;;;10.60;3.80;;;;;;;;;;6131592;23;20044;-87
2022/05/16 13:29:33;;;;;;;10.77;3.67;;;;;;;;;;6153498;23;20049;-86
2022/05/16 13:32:29;;;;;;;8.40;2.35;;;;;;;;;;6128028;23;20777;-87
2022/05/16 13:34:57;;;;;;;6.22;2.63;;;;;;;;;;6094431;23;20366;-86
2022/05/16 13:37:28;;;;;;;10.45;3.22;;;;;;;;;;6128627;23;20021;-85
2022/05/16 13:39:56;;;;;;;10.73;3.70;;;;;;;;;;6128729;23;20024;-87
2022/05/16 13:42:23;;;;;;;8.43;3.53;;;;;;;;;;6128007;23;20092;-86
2022/05/16 13:44:49;;;;;;;9.13;3.13;;;;;;;;;;6128224;23;20013;-86
2022/05/16 13:47:19;;;;;;;10.27;3.90;;;;;;;;;;6128755;23;20466;-85
2022/05/16 13:49:46;;;;;;;9.35;4.00;;;;;;;;;;6124210;23;20624;-87
2022/05/16 13:52:17;;;;;;;10.95;3.60;;;;;;;;;;6098692;23;20453;-86
2022/05/16 13:54:47;;;;;;;12.03;3.80;;;;;;;;;;6125868;23;20095;-86
2022/05/16 13:57:22;;;;;;;7.70;3.87;;;;;;;;;;6123765;23;20065;-86
2022/05/16 14:00:17;;;;;;;10.13;4.18;;;;;;;;;;6106821;23;20013;-86
2022/05/16 14:02:53;;;;;;;10.50;4.10;;;;;;;;;;6126935;23;20441;-87
2022/05/16 14:05:25;;;;;;;7.90;3.40;;;;;;;;;;6128070;23;20009;-85
2022/05/16 14:07:51;;;;;;;11.40;4.10;;;;;;;;;;6129804;23;20013;-86
2022/05/16 14:10:18;;;;;;;8.20;3.75;;;;;;;;;;6127923;23;20027;-85
2022/05/16 14:12:52;;;;;;;9.45;3.47;;;;;;;;;;6128111;23;20091;-87
2022/05/16 14:15:32;;;;;;;11.15;4.00;;;;;;;;;;6152526;23;20020;-86
2022/05/16 14:18:17;;;;;;;9.45;3.90;;;;;;;;;;6127670;23;20338;-86
2022/05/16 14:20:51;;;;;;;8.25;4.03;;;;;;;;;;6164142;23;20063;-85
2022/05/16 14:23:24;;;;;;;9.98;4.50;;;;;;;;;;6154407;23;20036;-86
2022/05/16 14:26:09;;;;;;;10.13;6.10;;;;;;;;;;6140167;23;20017;-85
2022/05/16 14:28:43;;;;;;;9.82;6.20;;;;;;;;;;6155114;23;20501;-85
2022/05/16 14:31:41;;;;;;;19.30;6.05;;;;;;;;;;6130466;23;20496;-87
2022/05/16 14:34:26;;;;;;;11.68;6.00;;;;;;;;;;6100365;23;20088;-86
2022/05/16 14:37:01;;;;;;;7.38;4.85;;;24.00;82.40;;;;;;6126025;23;20024;-85
2022/05/16 14:39:51;;;;;;;10.52;5.00;;;25.00;85.70;;;;;;6129697;23;20024;-88
2022/05/16 14:42:23;;;;;;;14.85;7.10;;;25.10;87.90;;;;;;6129676;23;20013;-86
2022/05/16 14:44:58;;;;;;;12.82;7.45;;;;;;;;;;6130565;23;20017;-84
2022/05/16 14:47:25;;;;;;;;;;;;;;;;;;6131451;23;20013;-86
2022/05/16 14:49:52;;;;;;;11.57;6.70;;;;;;;;;;6131284;23;20309;-87
2022/05/16 14:52:22;;;;;;;14.52;6.60;;;;;;;;;;6129448;23;20021;-86
2022/05/16 14:54:50;;;;;;;10.90;7.38;;;;;;;;;;6129501;23;20016;-86
2022/05/16 14:57:16;;;;;;;14.48;6.25;;;;;;;;;;6129503;23;20024;-87
2022/05/16 14:59:43;;;;;;;13.95;7.03;;;;;;;;;;6129459;23;20017;-86
2022/05/16 15:04:56;;;;;;;12.85;7.68;;;;;;;;;;6153170;23;20069;-85
2022/05/16 15:07:23;;;;;;;16.02;9.07;;;;;;;;;;6105135;23;20011;-86
2022/05/16 15:09:49;;;;;;;12.60;8.43;;;;;;;;;;6133594;23;20016;-85
2022/05/16 15:15:24;;;;;;;15.43;10.02;;;;;;;;;;6134019;23;20025;-86
2022/05/16 15:17:54;;;;;;;15.57;9.98;;;;;;;;;;6130769;23;20032;-85
2022/05/16 15:20:20;;;;;;;17.98;10.75;;;;;;;;;;6105855;23;20017;-86
2022/05/16 15:22:46;;;;;;;15.68;10.55;;;;;;;;;;6103866;23;20009;-85
2022/05/16 15:25:16;;;;;;;15.50;10.32;;;;;;;;;;6127718;23;20650;-86
2022/05/16 15:27:45;;;;;;;14.18;9.43;;;;;;;;;;6103723;23;20465;-86
2022/05/16 15:30:15;;;;;;;18.52;10.48;;;;;;;;;;6127538;23;20021;-87
2022/05/16 15:32:41;;;;;;;20.13;9.73;;;25.20;87.00;;;;;;6103023;23;20907;-87
2022/05/16 15:35:11;;;;;;;22.23;10.63;;;;;;;;;;6125295;23;20013;-87
2022/05/16 15:37:37;;;;;;;21.63;11.50;;;24.30;99.90;;;;;;6147842;23;20020;-85
2022/05/16 15:40:04;;;;;;;24.50;12.73;;;23.90;99.90;;;;;;6098726;23;20043;-86
2022/05/16 15:42:30;;;;;;;27.48;14.73;;;23.70;99.90;;;;;;6124386;23;20013;-89
2022/05/16 15:45:01;;;;;;;25.42;15.70;;;;;;;;;;6096339;23;20013;-87
2022/05/16 15:47:29;;;;;;;30.77;19.57;;;;;;;;;;6119854;23;20013;-90
2022/05/16 15:49:55;;;;;;;31.05;19.95;;;;;;;;;;6101880;23;20054;-90
2022/05/16 15:52:23;;;;;;;33.80;21.90;;;;;;;;;;6123617;23;20025;-86
2022/05/16 15:54:50;;;;;;;33.17;22.23;;;;;;;;;;6121301;23;20400;-87
2022/05/16 15:57:16;;;;;;;34.92;23.27;;;;;;;;;;6123512;23;20112;-86
2022/05/16 15:59:42;;;;;;;38.45;23.38;;;;;;;;;;6100682;23;20188;-86
2022/05/16 16:02:14;;;;;;;23.00;15.85;;;;;;;;;;6095808;23;20013;-86
2022/05/16 16:10:15;;;;;;;20.67;13.07;;;;;;;;;;6149980;23;20484;-86
2022/05/16 16:12:42;;;;;;;22.15;12.80;;;;;;;;;;6125670;23;20055;-84
2022/05/16 16:15:11;;;;;;;19.88;12.27;;;;;;;;;;6094641;23;20386;-85
2022/05/16 16:17:37;;;;;;;19.00;12.30;;;;;;;;;;6099606;23;20019;-86
2022/05/16 16:20:03;;;;;;;19.15;12.05;;;;;;;;;;6100039;23;20350;-88
2022/05/16 16:22:32;;;;;;;19.52;13.15;;;;;;;;;;6128350;23;20013;-88
2022/05/16 16:24:59;;;;;;;20.88;13.23;;;;;;;;;;6099204;23;20102;-85
2022/05/16 16:27:27;;;;;;;21.95;13.82;;;;;;;;;;6101406;23;20013;-86
2022/05/16 16:29:55;;;;;;;20.88;13.63;;;;;;;;;;6124252;23;20032;-85
2022/05/16 16:32:21;;;;;;;24.13;14.85;;;;;;;;;;6126425;23;20028;-87
2022/05/16 16:34:48;;;;;;;24.45;16.20;;;;;;;;;;6098078;23;20454;-87
2022/05/16 16:37:14;;;;;;;24.88;15.85;;;;;;;;;;6095285;23;20021;-87